Time;durP1;ratioP1;P1;durP2;ratioP2;P2;SDS_P1;SDS_P2;PMS_P1;PMS_P2;Temp;Humidity;BMP_temperature;BMP_pressure;BME280_temperature;BME280_humidity;BME280_pressure;Samples;Min_cycle;Max_cycle;Signal;HPM_P1;HPM_P2
2022/11/12 00:02:16;;;;;;;58.42;30.62;;;;;;;1.32;100.00;100780.27;1662430;85;20995;-72
2022/11/12 00:05:04;;;;;;;48.50;27.80;;;;;;;1.30;100.00;100782.37;1672499;85;20917;-73
2022/11/12 00:07:51;;;;;;;41.50;22.27;;;;;;;1.30;100.00;100786.44;1672555;85;21014;-73
2022/11/12 00:10:43;;;;;;;40.75;23.30;;;;;;;1.28;100.00;100781.25;1651195;85;20905;-73
2022/11/12 00:13:30;;;;;;;47.35;23.92;;;;;;;1.32;100.00;100782.45;1651536;85;20905;-73
2022/11/12 00:16:21;;;;;;;43.70;22.52;;;;;;;1.34;100.00;100775.46;1672486;85;20932;-73
2022/11/12 00:19:12;;;;;;;42.53;22.05;;;;;;;1.35;100.00;100774.94;1672588;85;20897;-73
2022/11/12 00:22:01;;;;;;;41.10;21.77;;;;;;;1.36;100.00;100782.00;1651294;85;21417;-73
2022/11/12 00:24:53;;;;;;;36.08;20.92;;;;;;;1.37;100.00;100785.01;1651201;85;20933;-73
2022/11/12 00:27:43;;;;;;;39.53;19.98;;;;;;;1.42;100.00;100788.70;1672459;85;21534;-73
2022/11/12 00:30:29;;;;;;;38.42;19.40;;;;;;;1.50;100.00;100786.22;1672558;85;20905;-73
2022/11/12 00:33:19;;;;;;;31.97;18.57;;;;;;;1.49;100.00;100789.45;1672453;85;20912;-73
2022/11/12 00:36:08;;;;;;;39.00;20.88;;;;;;;1.49;100.00;100791.33;1672445;85;21041;-73
2022/11/12 00:38:58;;;;;;;35.03;19.27;;;;;;;1.48;100.00;100791.03;1672608;85;21033;-73
2022/11/12 00:41:50;;;;;;;36.03;20.20;;;;;;;1.46;100.00;100790.42;1651289;85;20957;-73
2022/11/12 00:44:40;;;;;;;35.23;19.25;;;;;;;1.46;100.00;100785.02;1651392;85;26816;-73
2022/11/12 00:47:27;;;;;;;36.20;20.68;;;;;;;1.47;100.00;100790.20;1672538;85;21503;-73
2022/11/12 00:50:14;;;;;;;32.78;19.45;;;;;;;1.50;100.00;100784.86;1672552;85;20952;-73
2022/11/12 00:53:02;;;;;;;40.83;20.27;;;;;;;1.57;100.00;100782.37;1651446;85;21092;-73
2022/11/12 00:55:55;;;;;;;43.35;20.17;;;;;;;1.58;100.00;100784.03;1672588;85;21776;-73
2022/11/12 00:58:45;;;;;;;38.83;22.50;;;;;;;1.62;100.00;100779.82;1672725;85;21414;-73
2022/11/12 01:01:35;;;;;;;35.70;19.98;;;;;;;1.71;100.00;100786.28;1651339;85;21499;-73
2022/11/12 01:04:22;;;;;;;40.28;20.23;;;;;;;1.77;100.00;100778.05;1651272;85;21004;-73
2022/11/12 01:07:10;;;;;;;44.00;20.68;;;;;;;1.78;100.00;100776.98;1672517;85;20905;-74
2022/11/12 01:10:02;;;;;;;36.98;20.57;;;;;;;1.75;100.00;100771.20;1651138;85;21472;-73
2022/11/12 01:12:53;;;;;;;39.40;20.25;;;;;;;1.74;100.00;100774.44;1672456;85;20941;-73
2022/11/12 01:15:47;;;;;;;43.20;20.65;;;;;;;1.75;100.00;100776.62;1672446;84;20905;-73
2022/11/12 01:18:35;;;;;;;42.35;21.50;;;;;;;1.76;100.00;100776.92;1660413;85;21334;-73
2022/11/12 01:21:25;;;;;;;36.85;20.40;;;;;;;1.74;100.00;100777.14;1632644;85;21024;-73
2022/11/12 01:24:19;;;;;;;39.08;20.02;;;;;;;1.69;100.00;100772.14;1622419;87;20999;-73
2022/11/12 01:27:12;;;;;;;39.48;19.00;;;;;;;1.67;100.00;100775.08;1624429;87;20873;-73
2022/11/12 01:30:05;;;;;;;34.33;17.95;;;;;;;1.68;100.00;100774.03;1645240;87;20937;-75
2022/11/12 01:32:52;;;;;;;31.87;18.20;;;;;;;1.65;100.00;100786.13;1624874;87;20991;-73
2022/11/12 01:35:39;;;;;;;32.63;17.62;;;;;;;1.64;100.00;100780.42;1624791;87;21468;-73
2022/11/12 01:38:27;;;;;;;37.67;18.50;;;;;;;1.60;100.00;100783.28;1624592;87;20893;-73
2022/11/12 01:41:18;;;;;;;30.97;18.25;;;;;;;1.57;100.00;100789.67;1645252;87;20960;-73
2022/11/12 01:44:19;;;;;;;29.65;17.80;;;;;;;1.54;100.00;100782.83;1645306;87;21009;-73
2022/11/12 01:47:19;;;;;;;31.70;17.80;;;;;;;1.51;100.00;100791.92;1645233;87;21606;-73
2022/11/12 01:50:29;;;;;;;38.75;20.80;;;;;;;1.49;100.00;100792.68;1624655;87;20912;-73
2022/11/12 01:53:14;;;;;;;37.20;19.48;;;;;;;1.50;100.00;100786.22;1645263;87;21228;-73
2022/11/12 01:56:06;;;;;;;32.65;17.85;;;;;;;1.58;100.00;100787.27;1626805;85;21053;-73
2022/11/12 01:59:00;;;;;;;36.73;18.95;;;;;;;1.56;100.00;100784.78;1672524;85;21051;-74
2022/11/12 02:01:51;;;;;;;31.90;17.73;;;;;;;1.55;100.00;100786.36;1672306;85;20932;-72
2022/11/12 02:04:39;;;;;;;37.78;18.32;;;;;;;1.53;100.00;100785.77;1672581;85;20909;-73
2022/11/12 02:07:33;;;;;;;30.20;17.37;;;;;;;1.51;100.00;100786.52;1651201;85;21432;-73
2022/11/12 02:10:20;;;;;;;33.00;17.35;;;;;;;1.50;100.00;100784.34;1673031;85;20941;-73
2022/11/12 02:16:20;;;;;;;26.42;16.27;;;;;;;1.51;100.00;100785.16;1672482;85;21559;-73
2022/11/12 02:19:18;;;;;;;27.73;16.15;;;;;;;1.50;100.00;100783.51;1651190;85;20933;-73
2022/11/12 02:22:09;;;;;;;29.37;16.15;;;;;;;1.50;100.00;100787.57;1672434;85;21150;-74
2022/11/12 02:24:59;;;;;;;35.38;16.35;;;;;;;1.52;100.00;100790.88;1651265;85;21043;-73
2022/11/12 02:27:50;;;;;;;35.85;16.57;;;;;;;1.54;100.00;100792.83;1672465;85;20937;-73
2022/11/12 02:30:43;;;;;;;30.08;15.08;;;;;;;1.53;100.00;100785.77;1672438;85;20976;-74
2022/11/12 02:33:34;;;;;;;34.85;17.90;;;;;;;1.52;100.00;100781.41;1672659;85;20893;-73
2022/11/12 02:36:22;;;;;;;28.47;16.15;;;;;;;1.50;100.00;100772.69;1651510;85;21547;-73
2022/11/12 02:39:10;;;;;;;33.85;17.75;;;;;;;1.52;100.00;100766.52;1672478;85;21432;-74
2022/11/12 02:41:57;;;;;;;37.48;17.45;;;;;;;1.60;100.00;100756.73;1651207;85;20854;-73
2022/11/12 02:44:51;;;;;;;29.82;16.75;;;;;;;1.64;100.00;100749.81;1651313;85;20995;-73
2022/11/12 02:47:36;;;;;;;;;;;;;;;1.65;100.00;100755.53;1662962;85;20989;-73
2022/11/12 02:50:32;;;;;;;25.48;16.07;;;;;;;1.65;100.00;100754.18;1658057;85;21160;-74
2022/11/12 02:53:18;;;;;;;31.50;17.87;;;;;;;1.59;100.00;100754.56;1663188;86;21511;-74
2022/11/12 02:56:05;;;;;;;30.12;16.48;;;;;;;1.57;100.00;100765.31;1663313;86;21015;-73
2022/11/12 02:58:58;;;;;;;27.05;17.48;;;;;;;1.54;100.00;100759.00;1663270;86;21467;-73
2022/11/12 03:01:45;;;;;;;34.58;18.12;;;;;;;1.56;100.00;100760.95;1663195;86;20964;-74
2022/11/12 03:04:35;;;;;;;37.85;19.55;;;;;;;1.57;100.00;100761.25;1642816;86;20979;-73
2022/11/12 03:07:22;;;;;;;38.85;20.70;;;;;;;1.53;100.00;100758.70;1663182;86;20965;-72
2022/11/12 03:10:11;;;;;;;35.25;19.27;;;;;;;1.50;100.00;100758.63;1642538;86;20952;-73
2022/11/12 03:13:01;;;;;;;36.38;20.60;;;;;;;1.50;100.00;100761.86;1663293;86;21016;-72
2022/11/12 03:15:54;;;;;;;38.73;20.68;;;;;;;1.50;100.00;100764.56;1663300;84;21428;-73
2022/11/12 03:18:41;;;;;;;38.60;20.62;;;;;;;1.53;100.00;100754.64;1663411;86;21159;-73
2022/11/12 03:21:31;;;;;;;42.23;22.50;;;;;;;1.56;100.00;100755.54;1663239;86;20977;-72
2022/11/12 03:24:19;;;;;;;47.30;26.25;;;;;;;1.58;100.00;100748.84;1663244;86;21433;-72
2022/11/12 03:27:13;;;;;;;55.65;27.07;;;;;;;1.65;100.00;100750.94;1642618;86;20933;-72
2022/11/12 03:30:00;;;;;;;53.83;29.52;;;;;;;1.70;100.00;100760.27;1663568;86;20964;-80
2022/11/12 03:32:44;;;;;;;51.75;28.15;;;;;;;1.76;100.00;100757.97;1656768;85;21252;-79
2022/11/12 03:35:36;;;;;;;56.42;30.12;;;;;;;1.88;100.00;100760.20;1609660;87;20984;-80
2022/11/12 03:38:27;;;;;;;56.63;31.87;;;;;;;1.97;100.00;100756.95;1631535;88;21071;-76
2022/11/12 03:41:19;;;;;;;53.85;30.17;;;;;;;2.07;100.00;100758.28;1631568;88;21015;-78
2022/11/12 03:44:11;;;;;;;51.63;28.42;;;;;;;2.16;100.00;100756.89;1631564;88;20968;-77
2022/11/12 03:47:00;;;;;;;55.98;29.10;;;;;;;2.21;100.00;100757.03;1631651;88;21484;-76
2022/11/12 03:49:50;;;;;;;48.52;27.50;;;;;;;2.27;100.00;100755.58;1631367;88;21524;-72
2022/11/12 03:52:38;;;;;;;46.65;26.65;;;;;;;2.30;100.00;100755.64;1608979;88;20965;-72
2022/11/12 03:55:29;;;;;;;49.27;27.32;;;;;;;2.35;100.00;100757.62;1609008;88;20964;-72
2022/11/12 03:58:17;;;;;;;39.88;23.10;;;;;;;2.39;100.00;100771.83;1631595;88;21130;-72
2022/11/12 04:01:03;;;;;;;44.88;25.37;;;;;;;2.43;100.00;100764.89;1637538;85;21264;-72
2022/11/12 04:03:51;;;;;;;46.77;23.75;;;;;;;2.49;100.00;100761.78;1649561;85;20961;-72
2022/11/12 04:09:43;;;;;;;33.48;17.35;;;;;;;2.60;100.00;100763.16;1631483;88;20944;-72
2022/11/12 04:15:38;;;;;;;30.70;17.67;;;;;;;2.92;100.00;100762.80;1609452;87;21519;-73
2022/11/12 04:21:53;;;;;;;26.85;15.20;;;;;;;3.42;100.00;100747.37;1631504;88;20989;-72
2022/11/12 04:27:50;;;;;;;42.08;21.95;;;;;;;3.84;100.00;100743.31;1609491;88;21043;-72
2022/11/12 04:30:37;;;;;;;41.53;20.82;;;;;;;3.96;100.00;100741.38;1630632;88;21158;-73
2022/11/12 04:33:24;;;;;;;47.35;22.32;;;;;;;4.06;100.00;100746.15;1631401;88;21527;-73
2022/11/12 04:36:11;;;;;;;41.88;22.30;;;;;;;4.14;100.00;100742.21;1631463;88;20972;-72
2022/11/12 04:38:58;;;;;;;47.78;23.75;;;;;;;4.16;100.00;100750.95;1631460;88;20929;-74
2022/11/12 04:44:58;;;;;;;33.75;20.17;;;;;;;4.14;100.00;100755.80;1585562;87;20991;-72
2022/11/12 04:47:46;;;;;;;41.50;22.05;;;;;;;4.10;100.00;100758.18;1609749;87;20948;-72
2022/11/12 04:50:33;;;;;;;44.67;22.62;;;;;;;4.08;100.00;100760.31;1631524;88;21595;-72
2022/11/12 04:53:25;;;;;;;44.40;22.82;;;;;;;4.04;100.00;100756.47;1609580;88;21544;-72
2022/11/12 04:56:10;;;;;;;35.78;21.68;;;;;;;3.99;100.00;100757.73;1631509;88;20912;-72
2022/11/12 04:58:59;;;;;;;36.03;21.05;;;;;;;3.99;100.00;100757.73;1631506;88;22071;-72
2022/11/12 05:01:51;;;;;;;37.67;21.30;;;;;;;3.98;100.00;100758.27;1608756;88;20936;-72
2022/11/12 05:04:42;;;;;;;38.23;21.35;;;;;;;3.97;100.00;100746.28;1631506;88;20961;-72
2022/11/12 05:07:34;;;;;;;32.05;18.62;;;;;;;3.98;100.00;100747.92;1608942;88;21540;-72
2022/11/12 05:10:23;;;;;;;32.00;19.25;;;;;;;4.04;100.00;100751.56;1610963;87;20889;-72
2022/11/12 05:13:12;;;;;;;39.65;22.70;;;;;;;4.10;100.00;100749.20;1609452;87;21456;-72
2022/11/12 05:16:08;;;;;;;34.35;19.80;;;;;;;4.16;100.00;100761.81;1631416;86;21429;-72
2022/11/12 05:18:56;;;;;;;29.92;19.12;;;;;;;4.27;100.00;100762.30;1631504;88;21479;-72
2022/11/12 05:24:54;;;;;;;32.78;19.20;;;;;;;4.30;100.00;100761.80;1631407;88;20985;-72
2022/11/12 05:27:39;;;;;;;33.25;19.87;;;;;;;4.36;100.00;100760.00;1631341;88;21563;-72
2022/11/12 05:30:31;;;;;;;35.40;21.07;;;;;;;4.41;100.00;100757.38;1631365;88;21011;-72
2022/11/12 05:33:22;;;;;;;46.25;22.95;;;;;;;4.47;100.00;100757.22;1631534;88;20964;-72
2022/11/12 05:36:17;;;;;;;41.98;22.05;;;;;;;4.51;100.00;100756.19;1609719;88;21102;-72
2022/11/12 05:39:05;;;;;;;41.80;21.20;;;;;;;4.56;100.00;100757.09;1609427;88;20960;-72
2022/11/12 05:41:56;;;;;;;43.55;23.52;;;;;;;4.66;100.00;100753.69;1631447;88;21349;-72
2022/11/12 05:44:45;;;;;;;43.48;23.18;;;;;;;4.77;100.00;100747.34;1631341;88;20924;-72
2022/11/12 05:47:31;;;;;;;41.98;22.13;;;;;;;4.87;100.00;100748.87;1631462;88;21492;-72
2022/11/12 05:50:19;;;;;;;38.85;22.27;;;;;;;4.94;100.00;100774.55;1631346;85;21004;-72
2022/11/12 05:53:03;;;;;;;48.55;23.47;;;;;;;5.00;100.00;100777.64;1631482;88;20980;-72
2022/11/12 05:55:55;;;;;;;47.62;22.42;;;;;;;5.00;100.00;100777.64;1609457;87;20933;-72
2022/11/12 05:58:44;;;;;;;41.42;22.07;;;;;;;5.08;100.00;100786.74;1612959;87;20920;-71
2022/11/12 06:01:34;;;;;;;42.55;21.80;;;;;;;5.11;100.00;100789.50;1631504;88;21039;-72
2022/11/12 06:04:25;;;;;;;37.33;20.37;;;;;;;5.15;100.00;100786.03;1608940;88;20901;-72
2022/11/12 06:07:13;;;;;;;41.33;20.45;;;;;;;5.25;100.00;100797.04;1609545;87;21052;-72
2022/11/12 06:09:59;;;;;;;37.23;20.62;;;;;;;5.31;100.00;100797.94;1657608;85;21913;-72
2022/11/12 06:12:43;;;;;;;39.20;20.82;;;;;;;5.31;100.00;100797.94;1658186;86;21593;-72
2022/11/12 06:15:31;;;;;;;37.38;20.90;;;;;;;5.35;100.00;100780.56;1658240;85;20972;-73
2022/11/12 06:18:20;;;;;;;39.85;20.45;;;;;;;5.38;100.00;100782.78;1635634;86;21437;-72
2022/11/12 06:21:26;;;;;;;32.00;19.00;;;;;;;5.38;100.00;100789.59;1635682;86;20961;-72
2022/11/12 06:24:19;;;;;;;34.13;20.52;;;;;;;5.39;100.00;100783.07;1635477;86;21050;-72
2022/11/12 06:27:07;;;;;;;38.08;21.27;;;;;;;5.53;100.00;100789.27;1635765;86;21597;-72
2022/11/12 06:29:55;;;;;;;36.85;20.32;;;;;;;5.87;100.00;100787.22;1658203;86;21538;-72
2022/11/12 06:32:40;;;;;;;36.13;20.37;;;;;;;6.35;100.00;100783.41;1656980;85;21007;-76
2022/11/12 06:35:26;;;;;;;34.60;19.48;;;;;;;6.84;100.00;100785.47;1658122;86;21060;-73
2022/11/12 06:38:11;;;;;;;32.95;17.60;;;;;;;7.33;100.00;100783.88;1662100;85;21826;-74
2022/11/12 06:40:56;;;;;;;32.05;17.95;;;;;;;7.74;100.00;100779.42;1651963;84;21123;-75
2022/11/12 06:43:43;;;;;;;27.20;16.25;;;;;;;8.12;100.00;100775.42;1659273;84;20945;-73
2022/11/12 06:46:34;;;;;;;35.17;16.82;;;;;;;8.48;100.00;100781.28;1674311;85;21337;-73
2022/11/12 06:49:22;;;;;;;28.65;14.93;;;;;;;8.80;100.00;100774.16;1676697;85;20944;-74
2022/11/12 06:52:13;;;;;;;31.30;15.70;;;;;;;9.14;100.00;100769.48;1676995;85;21273;-75
2022/11/12 06:54:58;;;;;;;22.37;13.88;;;;;;;9.45;100.00;100779.25;1675883;84;20901;-75
2022/11/12 06:57:43;;;;;;;27.15;13.48;;;;;;;9.75;100.00;100767.37;1672811;85;20917;-75
2022/11/12 07:00:31;;;;;;;26.40;14.35;;;;;;;9.97;100.00;100768.34;1674706;85;20920;-77
2022/11/12 07:03:22;;;;;;;22.82;12.35;;;;;;;10.09;100.00;100772.13;1670542;84;21563;-78
2022/11/12 07:06:17;;;;;;;25.60;13.70;;;;;;;10.28;100.00;100772.32;1662686;85;21280;-75
2022/11/12 07:09:10;;;;;;;24.82;13.28;;;;;;;10.49;100.00;100767.76;1677161;85;21093;-78
2022/11/12 07:11:58;;;;;;;22.98;12.40;;;;;;;10.65;100.00;100764.91;1674239;84;21106;-77
2022/11/12 07:14:47;;;;;;;23.10;13.32;;;;;;;10.72;100.00;100755.78;1678579;84;20956;-74
2022/11/12 07:17:36;;;;;;;28.12;13.10;;;;;;;10.67;100.00;100748.41;1659177;85;21084;-75
2022/11/12 07:20:26;;;;;;;26.35;14.23;;;;;;;10.47;100.00;100738.95;1731979;81;21544;-80
2022/11/12 07:23:16;;;;;;;24.32;13.40;;;;;;;10.18;100.00;100736.13;1727174;81;21015;-82
2022/11/12 07:26:07;;;;;;;22.37;13.03;;;;;;;10.09;100.00;100724.11;1727278;81;21364;-81
2022/11/12 07:28:56;;;;;;;29.02;14.33;;;;;;;10.18;100.00;100732.83;1725638;81;20960;-82
2022/11/12 07:32:02;;;;;;;27.27;13.70;;;;;;;10.20;100.00;100730.66;1720775;81;41351;-83
2022/11/12 07:34:51;;;;;;;;;;;;;;;10.41;100.00;100726.37;1720718;82;21158;-78
2022/11/12 07:37:40;;;;;;;25.92;13.05;;;;;;;10.66;100.00;100726.73;1712884;83;20153;-75
2022/11/12 07:40:30;;;;;;;23.07;12.93;;;;;;;10.95;100.00;100729.49;1709446;82;21426;-83
2022/11/12 07:43:18;;;;;;;20.32;11.93;;;;;;;11.27;100.00;100720.62;1718274;82;21133;-75
2022/11/12 07:46:13;;;;;;;23.60;12.63;;;;;;;11.54;100.00;100716.73;1719826;82;21086;-75
2022/11/12 07:49:03;;;;;;;24.57;12.63;;;;;;;11.86;99.95;100717.42;1734093;82;21793;-80
2022/11/12 07:51:52;;;;;;;23.18;12.45;;;;;;;12.14;98.64;100709.56;1697526;82;20979;-76
2022/11/12 07:54:41;;;;;;;25.80;12.60;;;;;;;12.17;94.23;100702.09;1689528;82;21059;-77
2022/11/12 07:57:30;;;;;;;29.60;13.18;;;;;;;11.87;94.60;100713.56;1729824;82;21083;-80
2022/11/12 08:00:18;;;;;;;22.22;12.20;;;;;;;11.59;94.87;100714.70;1709383;82;21139;-75
2022/11/12 08:03:09;;;;;;;23.57;12.63;;;;;;;11.61;98.14;100726.79;1734325;82;21144;-90
2022/11/12 08:06:01;;;;;;;22.35;12.23;;;;;;;12.06;97.58;100724.59;1681154;83;21102;-79
2022/11/12 08:08:51;;;;;;;25.68;12.43;;;;;;;12.46;94.70;100722.58;1674657;84;21051;-78
2022/11/12 08:11:41;;;;;;;24.55;12.47;;;;;;;12.71;93.71;100719.94;1695517;83;21065;-75
2022/11/12 08:14:29;;;;;;;25.75;12.07;;;;;;;12.98;92.65;100721.13;1695016;83;21176;-76
2022/11/12 08:17:14;;;;;;;19.87;11.55;;;;;;;13.31;89.84;100721.34;1702171;83;21189;-71
2022/11/12 08:20:02;;;;;;;20.00;11.45;;;;;;;13.52;88.06;100721.76;1702383;83;21028;-74
2022/11/12 08:22:50;;;;;;;22.73;11.57;;;;;;;13.69;87.75;100718.37;1700289;83;21149;-72
2022/11/12 08:25:36;;;;;;;19.52;11.33;;;;;;;13.89;87.14;100716.54;1702976;83;20940;-72
2022/11/12 08:28:22;;;;;;;22.32;11.95;;;;;;;14.11;83.52;100714.40;1708275;82;20990;-72
2022/11/12 08:31:14;;;;;;;18.05;11.73;;;;;;;14.13;81.44;100720.42;1737942;81;21239;-73
2022/11/12 08:43:54;;;;;;;22.22;11.28;;;;;;;14.73;80.16;100739.45;1671221;85;21020;-70
2022/11/12 08:46:40;;;;;;;16.85;11.00;;;;;;;14.88;79.95;100728.02;1672475;85;21255;-71
2022/11/12 08:49:24;;;;;;;18.80;10.70;;;;;;;15.08;76.76;100731.60;1684545;84;21081;-71
2022/11/12 08:52:09;;;;;;;23.92;11.03;;;;;;;15.09;77.87;100733.80;1661073;85;21145;-71
2022/11/12 08:54:54;;;;;;;21.75;10.53;;;;;;;15.20;76.81;100733.78;1667972;85;21057;-71
2022/11/12 08:57:43;;;;;;;20.32;11.12;;;;;;;15.25;75.86;100738.36;1664691;84;21102;-71
2022/11/12 09:00:34;;;;;;;20.90;10.55;;;;;;;15.34;77.46;100729.53;1663090;85;21270;-71
2022/11/12 09:03:21;;;;;;;18.92;11.05;;;;;;;15.64;75.11;100727.86;1678696;84;20955;-71
2022/11/12 09:06:07;;;;;;;17.60;9.40;;;;;;;15.72;73.72;100723.73;1672303;84;21519;-71
2022/11/12 09:08:52;;;;;;;18.48;10.30;;;;;;;15.73;74.39;100726.75;1674651;85;20989;-71
2022/11/12 09:11:36;;;;;;;23.10;10.50;;;;;;;15.90;72.55;100721.02;1664828;84;21019;-71
2022/11/12 09:14:22;;;;;;;18.65;9.48;;;;;;;15.84;72.40;100728.09;1659902;83;21555;-71
2022/11/12 09:17:07;;;;;;;16.60;9.05;;;;;;;15.90;73.45;100725.98;1676121;85;21031;-71
2022/11/12 09:19:52;;;;;;;18.52;9.55;;;;;;;16.18;72.71;100722.34;1672968;84;21562;-71
2022/11/12 09:22:38;;;;;;;14.78;8.33;;;;;;;16.44;70.87;100725.12;1670557;83;21059;-71
2022/11/12 09:25:23;;;;;;;12.93;8.48;;;;;;;16.57;70.42;100716.39;1674350;85;21028;-71
2022/11/12 09:28:16;;;;;;;19.85;8.58;;;;;;;16.72;70.17;100700.67;1672757;84;21895;-71
2022/11/12 09:31:01;;;;;;;11.90;7.83;;;;;;;16.82;69.13;100698.34;1673653;84;20988;-71
2022/11/12 09:33:46;;;;;;;13.03;8.33;;;;;;;17.00;68.22;100685.24;1687093;83;21033;-71
2022/11/12 09:36:31;;;;;;;19.07;8.28;;;;;;;17.19;67.57;100695.14;1726009;82;21015;-71
2022/11/12 09:39:16;;;;;;;17.67;8.50;;;;;;;17.29;67.14;100702.52;1726079;82;20991;-72
2022/11/12 09:42:12;;;;;;;13.20;7.22;;;;;;;17.40;67.28;100692.65;1733555;82;21238;-71
2022/11/12 09:45:12;;;;;;;15.30;7.70;;;;;;;17.48;64.56;100694.58;1725834;82;20993;-71
2022/11/12 09:48:01;;;;;;;10.30;6.95;;;;;;;17.41;63.78;100692.08;1722513;82;20935;-71
2022/11/12 09:50:55;;;;;;;14.25;7.20;;;;;;;17.27;63.51;100687.35;1726494;82;21471;-72
2022/11/12 09:53:48;;;;;;;17.62;7.78;;;;;;;17.21;63.74;100681.75;1722993;82;21102;-73
2022/11/12 09:56:33;;;;;;;16.40;6.95;;;;;;;17.28;63.04;100691.75;1689431;83;21285;-71
2022/11/12 09:59:17;;;;;;;11.55;6.90;;;;;;;17.22;62.89;100691.13;1689892;83;20928;-72
2022/11/12 10:02:29;;;;;;;13.62;6.53;;;;;;;17.23;63.54;100674.72;1691288;83;21035;-72
2022/11/12 10:05:33;;;;;;;14.05;6.20;;;;;;;17.25;63.09;100690.46;1686533;83;20944;-72
2022/11/12 10:08:59;;;;;;;16.00;7.05;;;;;;;17.23;62.44;100685.00;1684216;83;21110;-72
2022/11/12 10:12:37;;;;;;;12.53;7.03;;;;;;;17.09;63.47;100681.05;1688978;83;21876;-72
2022/11/12 10:19:09;;;;;;;16.30;7.75;;;;;;;16.75;64.41;100683.38;1690158;83;21170;-75
2022/11/12 10:22:27;;;;;;;16.50;7.50;;;;;;;16.97;64.22;100685.91;1692621;84;20919;-76
2022/11/12 10:25:18;;;;;;;12.68;6.42;;;;;;;17.10;63.13;100693.20;1687382;83;21447;-77
2022/11/12 10:28:29;;;;;;;19.12;8.38;;;;;;;17.20;62.48;100686.48;1673919;84;21560;-77
2022/11/12 10:31:18;;;;;;;18.67;8.33;;;;;;;17.21;62.01;100692.27;1676073;84;20985;-72
2022/11/12 10:34:18;;;;;;;17.02;7.87;;;;;;;17.14;62.37;100694.17;1677214;84;20967;-75
2022/11/12 10:37:27;;;;;;;19.48;8.35;;;;;;;16.91;62.27;100687.80;1716875;82;21558;-76
2022/11/12 10:40:33;;;;;;;17.20;7.17;;;;;;;16.59;63.95;100694.70;1717471;82;20975;-77
2022/11/12 10:43:22;;;;;;;14.50;7.53;;;;;;;16.41;65.28;100698.05;1715446;83;21229;-73
2022/11/12 10:46:18;;;;;;;14.98;7.78;;;;;;;16.24;65.66;100693.90;1715600;82;20964;-74
2022/11/12 10:49:18;;;;;;;13.95;6.80;;;;;;;16.05;66.60;100685.94;1714217;82;21071;-68
2022/11/12 10:52:03;;;;;;;18.30;8.45;;;;;;;15.87;66.46;100691.20;1715719;82;20947;-73
2022/11/12 10:54:49;;;;;;;15.00;7.37;;;;;;;15.32;67.03;100683.39;1716462;83;20864;-73
2022/11/12 10:57:34;;;;;;;15.05;8.00;;;;;;;14.86;68.74;100673.03;1696091;82;21213;-79
2022/11/12 11:00:23;;;;;;;19.30;8.50;;;;;;;14.97;70.39;100679.11;1713156;82;21043;-77
2022/11/12 11:03:30;;;;;;;13.00;7.28;;;;;;;15.50;66.97;100676.78;1716181;82;21005;-78
2022/11/12 11:06:27;;;;;;;17.23;8.13;;;;;;;16.04;64.78;100659.38;1713273;82;21066;-72
2022/11/12 11:09:28;;;;;;;17.65;8.13;;;;;;;16.64;64.22;100662.11;1641511;83;21063;-78
2022/11/12 11:12:48;;;;;;;19.50;7.55;;;;;;;17.21;60.43;100648.45;1716293;82;21278;-72
2022/11/12 11:15:32;;;;;;;18.20;8.18;;;;;;;17.48;60.38;100641.02;1711309;82;21545;-73
2022/11/12 11:18:17;;;;;;;18.00;7.87;;;;;;;17.98;58.90;100643.79;1663241;84;21518;-76
2022/11/12 11:21:31;;;;;;;16.55;8.68;;;;;;;18.22;57.84;100648.66;1714148;82;21030;-77
2022/11/12 11:24:40;;;;;;;15.28;8.33;;;;;;;17.93;57.55;100641.79;1684994;82;21062;-77
2022/11/12 11:27:35;;;;;;;17.50;8.85;;;;;;;17.28;58.67;100652.91;1715094;83;22386;-81
2022/11/12 11:30:21;;;;;;;19.27;8.95;;;;;;;16.39;60.03;100655.43;1712580;82;20979;-76
2022/11/12 11:33:57;;;;;;;15.45;9.20;;;;;;;15.50;62.70;100647.73;1712705;82;21011;-86
2022/11/12 11:37:05;;;;;;;17.23;9.00;;;;;;;14.99;65.18;100656.67;1713336;83;21498;-78
2022/11/12 11:40:27;;;;;;;21.97;9.95;;;;;;;15.04;66.59;100649.02;1691948;83;20915;-79
2022/11/12 11:43:38;;;;;;;15.15;8.98;;;;;;;15.07;65.63;100644.23;1715692;82;20950;-78
2022/11/12 11:46:54;;;;;;;18.07;9.60;;;;;;;15.19;65.83;100643.64;1715360;82;21007;-84
2022/11/12 11:50:12;;;;;;;19.85;9.95;;;;;;;15.00;65.72;100646.68;1719432;82;21506;-87
2022/11/12 11:53:21;;;;;;;17.87;8.85;;;;;;;14.54;66.90;100647.88;1714635;81;21059;-80
2022/11/12 11:56:24;;;;;;;26.27;9.40;;;;;;;14.76;68.24;100635.17;1714484;81;22490;-76
2022/11/12 11:59:30;;;;;;;16.65;9.58;;;;;;;15.35;66.36;100642.64;1708666;82;21673;-79
2022/11/12 12:02:53;;;;;;;136.35;72.05;;;;;;;15.72;65.56;100640.69;1704538;83;21229;-82
2022/11/12 12:05:44;;;;;;;21.02;10.85;;;;;;;16.22;63.73;100641.59;1645743;86;21003;-71
2022/11/12 12:08:48;;;;;;;23.22;12.47;;;;;;;16.04;63.47;100644.95;1636170;86;21062;-71
2022/11/12 12:11:51;;;;;;;;;;;;;;;15.73;63.75;100647.86;1699434;83;21080;-72
2022/11/12 12:15:04;;;;;;;22.42;9.78;;;;;;;15.35;65.04;100648.17;1702665;84;21103;-70
2022/11/12 12:18:03;;;;;;;20.50;10.90;;;;;;;14.81;65.50;100644.71;1669471;84;21120;-71
2022/11/12 12:20:56;;;;;;;18.95;7.78;;;;;;;14.23;68.20;100640.11;1689558;83;20974;-72
2022/11/12 12:24:17;;;;;;;18.23;9.28;;;;;;;14.13;70.16;100635.64;1695584;84;20983;-72
2022/11/12 12:27:25;;;;;;;21.12;10.15;;;;;;;14.51;69.46;100636.65;1699702;83;21026;-72
2022/11/12 12:30:20;;;;;;;28.62;12.75;;;;;;;14.56;67.95;100637.90;1692634;84;21822;-72
2022/11/12 12:33:47;;;;;;;22.48;10.28;;;;;;;14.25;69.42;100639.23;1697594;82;20938;-71
2022/11/12 12:36:40;;;;;;;26.25;12.15;;;;;;;13.84;70.63;100646.30;1711102;83;20959;-72
2022/11/12 12:40:01;;;;;;;24.72;11.30;;;;;;;13.30;72.60;100645.81;1715656;83;21011;-71
2022/11/12 12:42:52;;;;;;;20.62;10.72;;;;;;;12.96;74.51;100652.53;1716160;83;20955;-70
2022/11/12 12:45:43;;;;;;;19.30;10.78;;;;;;;12.72;75.90;100647.74;1710875;83;21335;-72
2022/11/12 12:48:37;;;;;;;22.13;9.90;;;;;;;12.55;77.57;100642.84;1710084;83;20952;-71
2022/11/12 12:51:24;;;;;;;21.57;9.90;;;;;;;12.42;78.33;100632.59;1711062;82;21685;-73
2022/11/12 12:54:37;;;;;;;19.23;9.73;;;;;;;12.35;78.99;100630.23;1724884;82;20896;-72
2022/11/12 12:57:37;;;;;;;20.00;10.03;;;;;;;12.34;79.33;100627.77;1726835;82;21019;-72
2022/11/12 13:00:38;;;;;;;21.87;10.35;;;;;;;12.27;79.36;100636.42;1656279;84;21681;-73
2022/11/12 13:04:02;;;;;;;25.45;10.50;;;;;;;12.20;80.04;100629.10;1664827;85;21044;-72
2022/11/12 13:06:51;;;;;;;17.27;9.28;;;;;;;12.19;80.25;100622.78;1623699;85;21686;-73
2022/11/12 13:09:37;;;;;;;17.87;9.08;;;;;;;12.26;80.50;100632.03;1659540;84;21177;-72
2022/11/12 13:12:45;;;;;;;15.72;8.93;;;;;;;12.26;80.67;100635.34;1672541;84;20951;-73
2022/11/12 13:15:43;;;;;;;17.00;8.80;;;;;;;12.22;80.82;100635.94;1664212;84;21655;-73
2022/11/12 13:18:44;;;;;;;15.25;8.83;;;;;;;12.13;81.47;100627.32;1658975;85;20928;-71
2022/11/12 13:21:30;;;;;;;19.02;9.53;;;;;;;12.05;81.35;100632.12;1661112;85;20907;-71
2022/11/12 13:24:15;;;;;;;14.95;8.40;;;;;;;12.03;81.42;100635.17;1674021;83;21366;-72
2022/11/12 13:27:01;;;;;;;13.60;7.62;;;;;;;12.15;81.28;100627.81;1716115;82;21076;-72
2022/11/12 13:29:47;;;;;;;12.75;7.80;;;;;;;12.29;79.69;100627.30;1723299;82;21156;-72
2022/11/12 13:32:50;;;;;;;12.95;7.05;;;;;;;12.35;78.13;100623.91;1695753;83;20947;-70
2022/11/12 13:35:38;;;;;;;15.23;8.08;;;;;;;12.34;77.58;100631.34;1683645;83;21193;-74
2022/11/12 13:38:24;;;;;;;12.80;6.78;;;;;;;12.19;77.40;100638.48;1681390;83;21133;-74
2022/11/12 13:42:46;;;;;;;18.62;7.78;;;;;;;12.00;77.84;100625.33;1725297;82;20881;-75
2022/11/12 13:44:07;;;;;;;14.28;7.97;;;;;;;11.83;78.16;100622.55;1692890;83;21273;-75